This is the latest recevied weather packets stored in our database for station/object W2JGA. If no packets are shown the sender has not sent any weather packets the latest 1 day(s).
| Time | Temp. | Humidity | Pressure | Rain* | Wind** | Luminosity | Snow |
|---|---|---|---|---|---|---|---|
| 1778005558 | 21.67° C | 55% | 1014.7 hPa | 0 mm | 1.34 m/s, 161° | 873 W/m² | - |
| 1778005255 | 21.67° C | 58% | 1015 hPa | 0 mm | 1.79 m/s, 165° | 684 W/m² | - |
| 1778004952 | 22.22° C | 55% | 1015 hPa | 0 mm | 1.79 m/s, 336° | 425 W/m² | - |
| 1778004649 | 21.11° C | 59% | 1015 hPa | 0 mm | 0.45 m/s, 146° | 847 W/m² | - |
| 1778004345 | 20.56° C | 60% | 1015 hPa | 0 mm | 0.45 m/s, 139° | 865 W/m² | - |
| 1778004044 | 20° C | 62% | 1015.4 hPa | 0 mm | 1.79 m/s, 215° | 515 W/m² | - |
| 1778003743 | 19.44° C | 62% | 1015 hPa | 0 mm | 0 m/s | 374 W/m² | - |
| 1778003441 | 20° C | 63% | 1015.4 hPa | 0 mm | 1.79 m/s, 230° | 150 W/m² | - |
| 1778003137 | 20.56° C | 62% | 1015.4 hPa | 0 mm | 1.34 m/s, 195° | 259 W/m² | - |
| 1778002833 | 20.56° C | 62% | 1015.4 hPa | 0 mm | 0.89 m/s, 160° | 1018 W/m² | - |
| 1778002530 | 21.67° C | 61% | 1015.4 hPa | 0 mm | 2.24 m/s, 239° | 719 W/m² | - |
| 1778002227 | 21.67° C | 58% | 1015.4 hPa | 0 mm | 0 m/s | 729 W/m² | - |
| 1778001925 | 20.56° C | 63% | 1015.4 hPa | 0 mm | 0.45 m/s, 134° | 988 W/m² | - |
| 1778001621 | 20.56° C | 62% | 1015.4 hPa | 0 mm | 0 m/s | 295 W/m² | - |
| 1778001316 | 20.56° C | 63% | 1015.4 hPa | 0 mm | 0 m/s | 538 W/m² | - |
| 1778001013 | 21.11° C | 62% | 1015.4 hPa | 0 mm | 1.79 m/s, 99° | 671 W/m² | - |
| 1778000705 | 20.56° C | 62% | 1015.4 hPa | 0 mm | 0 m/s | 491 W/m² | - |
| 1778000401 | 20° C | 65% | 1015 hPa | 0 mm | 0.45 m/s, 153° | 309 W/m² | - |
| 1778000096 | 20° C | 64% | 1015.4 hPa | 0 mm | 1.34 m/s, 137° | 589 W/m² | - |
| 1777999792 | 20° C | 66% | 1015.4 hPa | 0 mm | 0 m/s | 700 W/m² | - |
| 1777999488 | 19.44° C | 69% | 1015.4 hPa | 0 mm | 0 m/s | 681 W/m² | - |
| 1777999186 | 18.89° C | 68% | 1015.4 hPa | 0 mm | 0.89 m/s, 124° | 511 W/m² | - |
| 1777998884 | 18.89° C | 71% | 1015.4 hPa | 0 mm | 0.45 m/s, 126° | 373 W/m² | - |
| 1777998583 | 18.33° C | 72% | 1015.4 hPa | 0 mm | 0 m/s | 284 W/m² | - |
| 1777998279 | 17.78° C | 74% | 1015.4 hPa | 0 mm | 0.45 m/s, 163° | 262 W/m² | - |
* Rain latest hour (hover to see other rain measurements)
** Current wind speed in m/s (hover to see current wind gust speed)